Main page
METAR-TAF:

METAR-TAF

Airports :

Robert J. Miller Air Park

Ocean County, New Jersey, United States

latitude: 39-55-39N, longitude: 074-17-33W, elevation: 82 ft

Current weather observation

The report was made 1 hour and 1 minutes ago, at 15:56 UTC
Wind 24 mph from the West/Northwest with gusts up to 30 mph
Temperature 43°F
Humidity 52%
Pressure 29.82 in. Hg
Visibility: 10 miles
Broken clouds at a height of 4100 ft
Broken clouds at a height of 4700 ft

METAR: KMJX 051556Z AUTO 29021G26KT 10SM BKN041 BKN047 06/M03 A2982 RMK AO2 PK WND 28029/1544 SLP102 T00561028

Time: 11:57 (16:57 UTC)


TAF: missing

Weather observations and forecasts of more than 4000 airports (METAR and TAF reports).

The available stations are represented by yellow and red dots on the map.

Hover mouse over dot to see the name of the station.

Then click to see weather observations and forecasts.

To change the map : click on the green buttons with a black cross to zoom in, on the green button with a dash to zoom out, or on the green arrows for adjacent maps.


METAR-TAF: